sensor_id;sensor_type;location;lat;lon;timestamp;pressure;altitude;pressure_sealevel;temperature;humidity
75617;BME280;64200;55.426;37.758;2023-08-20T00:02:01;99763.78;;;23.22;61.98
75617;BME280;64200;55.426;37.758;2023-08-20T00:07:02;99757.09;;;23.19;61.97
75617;BME280;64200;55.426;37.758;2023-08-20T00:12:03;99750.66;;;23.19;62.06
75617;BME280;64200;55.426;37.758;2023-08-20T00:17:05;99748.00;;;23.21;61.99
75617;BME280;64200;55.426;37.758;2023-08-20T00:22:06;99738.94;;;23.09;62.40
75617;BME280;64200;55.426;37.758;2023-08-20T00:27:07;99738.66;;;23.12;62.50
75617;BME280;64200;55.426;37.758;2023-08-20T00:32:07;99724.19;;;23.10;62.62
75617;BME280;64200;55.426;37.758;2023-08-20T00:37:08;99723.44;;;23.10;62.69
75617;BME280;64200;55.426;37.758;2023-08-20T00:42:09;99730.88;;;23.00;63.07
75617;BME280;64200;55.426;37.758;2023-08-20T00:47:10;99730.72;;;22.71;63.65
75617;BME280;64200;55.426;37.758;2023-08-20T00:52:12;99718.06;;;22.58;64.17
75617;BME280;64200;55.426;37.758;2023-08-20T00:57:14;99712.94;;;22.57;64.01
75617;BME280;64200;55.426;37.758;2023-08-20T01:02:17;99718.53;;;22.36;65.33
75617;BME280;64200;55.426;37.758;2023-08-20T01:07:29;99721.66;;;22.05;65.90
75617;BME280;64200;55.426;37.758;2023-08-20T01:12:31;99727.88;;;21.77;67.68
75617;BME280;64200;55.426;37.758;2023-08-20T01:17:34;99715.75;;;21.77;67.79
75617;BME280;64200;55.426;37.758;2023-08-20T01:28:27;99725.28;;;21.47;70.38
75617;BME280;64200;55.426;37.758;2023-08-20T01:33:28;99715.97;;;21.46;69.99
75617;BME280;64200;55.426;37.758;2023-08-20T01:38:30;99716.69;;;21.66;69.65
75617;BME280;64200;55.426;37.758;2023-08-20T01:43:31;99710.34;;;21.60;70.01
75617;BME280;64200;55.426;37.758;2023-08-20T01:48:31;99723.72;;;21.46;70.75
75617;BME280;64200;55.426;37.758;2023-08-20T01:53:32;99723.44;;;21.30;71.22
75617;BME280;64200;55.426;37.758;2023-08-20T01:58:33;99727.59;;;21.29;70.64
75617;BME280;64200;55.426;37.758;2023-08-20T02:03:36;99717.13;;;21.37;70.21
75617;BME280;64200;55.426;37.758;2023-08-20T02:08:37;99706.41;;;21.30;69.91
75617;BME280;64200;55.426;37.758;2023-08-20T02:13:38;99712.28;;;21.19;70.13
75617;BME280;64200;55.426;37.758;2023-08-20T02:18:38;99716.88;;;21.22;69.87
75617;BME280;64200;55.426;37.758;2023-08-20T02:23:39;99724.78;;;21.29;69.85
75617;BME280;64200;55.426;37.758;2023-08-20T02:28:39;99701.25;;;21.48;69.44
75617;BME280;64200;55.426;37.758;2023-08-20T02:33:40;99712.38;;;21.46;69.10
75617;BME280;64200;55.426;37.758;2023-08-20T02:38:40;99700.69;;;21.49;68.99
75617;BME280;64200;55.426;37.758;2023-08-20T02:43:41;99693.66;;;21.56;68.50
75617;BME280;64200;55.426;37.758;2023-08-20T02:48:41;99704.91;;;21.62;68.57
75617;BME280;64200;55.426;37.758;2023-08-20T02:53:42;99722.16;;;21.31;69.38
75617;BME280;64200;55.426;37.758;2023-08-20T02:58:43;99722.78;;;21.24;69.88
75617;BME280;64200;55.426;37.758;2023-08-20T03:03:44;99699.50;;;21.45;69.20
75617;BME280;64200;55.426;37.758;2023-08-20T03:08:45;99710.63;;;21.43;68.95
75617;BME280;64200;55.426;37.758;2023-08-20T03:13:46;99735.88;;;21.27;69.44
75617;BME280;64200;55.426;37.758;2023-08-20T03:18:46;99737.09;;;21.32;69.58
75617;BME280;64200;55.426;37.758;2023-08-20T03:23:46;99746.28;;;21.57;69.27
75617;BME280;64200;55.426;37.758;2023-08-20T03:28:47;99750.47;;;21.69;68.66
75617;BME280;64200;55.426;37.758;2023-08-20T03:33:48;99761.22;;;21.90;67.56
75617;BME280;64200;55.426;37.758;2023-08-20T03:38:48;99757.19;;;21.99;67.15
75617;BME280;64200;55.426;37.758;2023-08-20T03:43:49;99761.53;;;22.00;67.07
75617;BME280;64200;55.426;37.758;2023-08-20T03:48:49;99759.66;;;21.89;66.82
75617;BME280;64200;55.426;37.758;2023-08-20T03:53:50;99769.97;;;21.60;67.46
75617;BME280;64200;55.426;37.758;2023-08-20T03:58:50;99759.38;;;21.09;69.27
75617;BME280;64200;55.426;37.758;2023-08-20T04:03:51;99769.50;;;20.60;70.99
75617;BME280;64200;55.426;37.758;2023-08-20T04:08:51;99809.31;;;20.24;72.48
75617;BME280;64200;55.426;37.758;2023-08-20T04:13:52;99778.53;;;20.15;75.19
75617;BME280;64200;55.426;37.758;2023-08-20T04:18:52;99767.25;;;20.09;80.18
75617;BME280;64200;55.426;37.758;2023-08-20T04:23:53;99793.75;;;19.81;81.41
75617;BME280;64200;55.426;37.758;2023-08-20T04:28:53;99775.84;;;19.98;80.71
75617;BME280;64200;55.426;37.758;2023-08-20T04:33:54;99747.81;;;20.19;80.59
75617;BME280;64200;55.426;37.758;2023-08-20T04:38:55;99736.38;;;20.06;80.80
75617;BME280;64200;55.426;37.758;2023-08-20T04:43:55;99717.53;;;19.83;81.49
75617;BME280;64200;55.426;37.758;2023-08-20T04:48:56;99705.69;;;19.85;81.12
75617;BME280;64200;55.426;37.758;2023-08-20T04:53:56;99697.44;;;19.87;81.57
75617;BME280;64200;55.426;37.758;2023-08-20T04:58:57;99681.69;;;19.92;80.56
75617;BME280;64200;55.426;37.758;2023-08-20T05:03:57;99664.75;;;20.11;80.51
75617;BME280;64200;55.426;37.758;2023-08-20T05:08:57;99658.84;;;20.09;80.24
75617;BME280;64200;55.426;37.758;2023-08-20T05:13:58;99658.09;;;20.08;80.67
75617;BME280;64200;55.426;37.758;2023-08-20T05:18:58;99646.38;;;20.17;80.44
75617;BME280;64200;55.426;37.758;2023-08-20T05:23:59;99636.16;;;20.52;79.96
75617;BME280;64200;55.426;37.758;2023-08-20T05:28:59;99616.97;;;20.97;79.19
75617;BME280;64200;55.426;37.758;2023-08-20T05:34:00;99609.75;;;21.28;78.57
75617;BME280;64200;55.426;37.758;2023-08-20T05:39:00;99604.00;;;21.47;76.92
75617;BME280;64200;55.426;37.758;2023-08-20T05:44:01;99598.00;;;21.64;76.75
75617;BME280;64200;55.426;37.758;2023-08-20T05:49:03;99597.13;;;21.96;76.08
75617;BME280;64200;55.426;37.758;2023-08-20T05:54:03;99594.47;;;22.11;74.10
75617;BME280;64200;55.426;37.758;2023-08-20T05:59:04;99599.50;;;22.32;74.06
75617;BME280;64200;55.426;37.758;2023-08-20T06:04:05;99607.28;;;22.87;73.49
75617;BME280;64200;55.426;37.758;2023-08-20T06:09:05;99613.00;;;23.29;71.94
75617;BME280;64200;55.426;37.758;2023-08-20T06:14:06;99620.06;;;23.57;71.06
75617;BME280;64200;55.426;37.758;2023-08-20T06:19:06;99614.22;;;23.92;71.04
75617;BME280;64200;55.426;37.758;2023-08-20T06:24:07;99629.94;;;24.29;69.51
75617;BME280;64200;55.426;37.758;2023-08-20T06:29:09;99626.66;;;24.10;66.53
75617;BME280;64200;55.426;37.758;2023-08-20T06:34:09;99620.41;;;24.19;67.19
75617;BME280;64200;55.426;37.758;2023-08-20T06:39:10;99631.19;;;24.49;67.10
75617;BME280;64200;55.426;37.758;2023-08-20T06:44:11;99633.16;;;24.62;66.19
75617;BME280;64200;55.426;37.758;2023-08-20T06:49:11;99630.09;;;24.60;64.95
75617;BME280;64200;55.426;37.758;2023-08-20T06:54:12;99638.16;;;24.33;65.69
75617;BME280;64200;55.426;37.758;2023-08-20T06:59:12;99629.81;;;24.43;65.63
75617;BME280;64200;55.426;37.758;2023-08-20T07:04:13;99644.81;;;24.80;65.25
75617;BME280;64200;55.426;37.758;2023-08-20T07:09:13;99636.44;;;24.89;64.22
75617;BME280;64200;55.426;37.758;2023-08-20T07:14:14;99619.19;;;25.18;63.51
75617;BME280;64200;55.426;37.758;2023-08-20T07:19:14;99624.69;;;25.01;62.85
75617;BME280;64200;55.426;37.758;2023-08-20T07:24:15;99612.91;;;25.20;62.84
75617;BME280;64200;55.426;37.758;2023-08-20T07:29:15;99598.41;;;25.72;60.16
75617;BME280;64200;55.426;37.758;2023-08-20T07:34:16;99602.34;;;26.00;59.90
75617;BME280;64200;55.426;37.758;2023-08-20T07:39:16;99601.66;;;26.65;60.08
75617;BME280;64200;55.426;37.758;2023-08-20T07:44:17;99603.94;;;26.99;57.68
75617;BME280;64200;55.426;37.758;2023-08-20T07:49:17;99599.19;;;27.62;57.03
75617;BME280;64200;55.426;37.758;2023-08-20T07:54:18;99593.66;;;28.17;55.17
75617;BME280;64200;55.426;37.758;2023-08-20T07:59:18;99589.78;;;29.04;53.44
75617;BME280;64200;55.426;37.758;2023-08-20T08:04:19;99596.66;;;29.28;51.62
75617;BME280;64200;55.426;37.758;2023-08-20T08:09:25;99592.22;;;30.33;51.25
75617;BME280;64200;55.426;37.758;2023-08-20T08:14:26;99584.41;;;31.37;47.16
75617;BME280;64200;55.426;37.758;2023-08-20T08:19:26;99570.69;;;32.24;44.04
75617;BME280;64200;55.426;37.758;2023-08-20T08:24:27;99579.03;;;34.35;41.47
75617;BME280;64200;55.426;37.758;2023-08-20T08:29:27;99583.25;;;35.27;36.07
75617;BME280;64200;55.426;37.758;2023-08-20T08:34:28;99575.81;;;35.66;36.53
75617;BME280;64200;55.426;37.758;2023-08-20T08:39:28;99552.94;;;36.48;33.14
75617;BME280;64200;55.426;37.758;2023-08-20T08:44:32;99542.81;;;36.97;31.48
75617;BME280;64200;55.426;37.758;2023-08-20T08:49:34;99552.59;;;37.71;31.40
75617;BME280;64200;55.426;37.758;2023-08-20T08:54:35;99554.13;;;38.85;31.11
75617;BME280;64200;55.426;37.758;2023-08-20T08:59:36;99565.13;;;39.06;27.87
75617;BME280;64200;55.426;37.758;2023-08-20T09:04:41;99563.41;;;38.05;27.95
75617;BME280;64200;55.426;37.758;2023-08-20T09:09:42;99561.63;;;38.90;29.65
75617;BME280;64200;55.426;37.758;2023-08-20T09:14:46;99571.50;;;40.07;27.18
75617;BME280;64200;55.426;37.758;2023-08-20T09:19:47;99564.44;;;39.92;26.63
75617;BME280;64200;55.426;37.758;2023-08-20T09:24:55;99555.28;;;39.58;25.96
75617;BME280;64200;55.426;37.758;2023-08-20T09:29:56;99545.28;;;38.06;27.93
75617;BME280;64200;55.426;37.758;2023-08-20T09:35:00;99534.31;;;40.82;23.78
75617;BME280;64200;55.426;37.758;2023-08-20T09:40:00;99530.41;;;40.73;24.11
75617;BME280;64200;55.426;37.758;2023-08-20T09:45:02;99508.97;;;39.06;25.88
75617;BME280;64200;55.426;37.758;2023-08-20T09:50:09;99506.16;;;39.10;26.26
75617;BME280;64200;55.426;37.758;2023-08-20T09:55:13;99494.00;;;40.04;25.21
75617;BME280;64200;55.426;37.758;2023-08-20T10:00:16;99491.63;;;37.93;27.13
75617;BME280;64200;55.426;37.758;2023-08-20T10:05:16;99497.97;;;35.76;30.37
75617;BME280;64200;55.426;37.758;2023-08-20T10:10:17;99502.09;;;35.71;30.79
75617;BME280;64200;55.426;37.758;2023-08-20T10:15:18;99498.19;;;34.13;33.64
75617;BME280;64200;55.426;37.758;2023-08-20T10:20:19;99502.84;;;33.93;34.15
75617;BME280;64200;55.426;37.758;2023-08-20T10:25:26;99507.94;;;33.81;34.14
75617;BME280;64200;55.426;37.758;2023-08-20T10:30:27;99480.75;;;32.99;36.36
75617;BME280;64200;55.426;37.758;2023-08-20T10:35:29;99480.94;;;33.26;35.84
75617;BME280;64200;55.426;37.758;2023-08-20T10:40:53;99473.44;;;33.09;35.65
75617;BME280;64200;55.426;37.758;2023-08-20T10:46:18;99460.66;;;31.84;38.14
75617;BME280;64200;55.426;37.758;2023-08-20T10:51:27;99446.59;;;31.67;39.23
75617;BME280;64200;55.426;37.758;2023-08-20T10:56:48;99447.44;;;30.93;39.98
75617;BME280;64200;55.426;37.758;2023-08-20T11:01:51;99455.56;;;30.75;40.87
75617;BME280;64200;55.426;37.758;2023-08-20T11:06:56;99427.72;;;29.95;42.38
75617;BME280;64200;55.426;37.758;2023-08-20T11:11:58;99450.03;;;29.36;44.47
75617;BME280;64200;55.426;37.758;2023-08-20T11:16:58;99430.66;;;29.36;44.29
75617;BME280;64200;55.426;37.758;2023-08-20T11:21:59;99422.78;;;29.27;44.48
75617;BME280;64200;55.426;37.758;2023-08-20T11:27:00;99404.75;;;28.87;45.74
75617;BME280;64200;55.426;37.758;2023-08-20T11:32:00;99405.88;;;28.55;46.44
75617;BME280;64200;55.426;37.758;2023-08-20T11:37:04;99407.88;;;28.25;47.75
75617;BME280;64200;55.426;37.758;2023-08-20T11:42:05;99409.78;;;28.13;48.50
75617;BME280;64200;55.426;37.758;2023-08-20T11:47:15;99434.16;;;27.77;50.04
75617;BME280;64200;55.426;37.758;2023-08-20T11:52:18;99450.88;;;25.51;46.70
75617;BME280;64200;55.426;37.758;2023-08-20T11:57:21;99489.69;;;24.23;50.73
75617;BME280;64200;55.426;37.758;2023-08-20T12:02:26;99459.34;;;23.74;54.77
75617;BME280;64200;55.426;37.758;2023-08-20T12:07:27;99463.53;;;23.80;54.23
75617;BME280;64200;55.426;37.758;2023-08-20T12:12:28;99450.50;;;23.48;54.59
75617;BME280;64200;55.426;37.758;2023-08-20T12:17:28;99437.50;;;23.24;55.67
75617;BME280;64200;55.426;37.758;2023-08-20T12:22:29;99447.56;;;23.33;56.21
75617;BME280;64200;55.426;37.758;2023-08-20T12:27:29;99449.59;;;23.17;56.23
75617;BME280;64200;55.426;37.758;2023-08-20T12:32:30;99432.47;;;22.88;57.16
75617;BME280;64200;55.426;37.758;2023-08-20T12:37:30;99437.88;;;22.50;58.89
75617;BME280;64200;55.426;37.758;2023-08-20T12:42:31;99407.59;;;22.52;59.62
75617;BME280;64200;55.426;37.758;2023-08-20T12:47:31;99408.41;;;22.39;59.97
75617;BME280;64200;55.426;37.758;2023-08-20T12:52:33;99412.00;;;22.61;60.96
75617;BME280;64200;55.426;37.758;2023-08-20T12:57:34;99400.88;;;22.71;60.09
75617;BME280;64200;55.426;37.758;2023-08-20T13:02:36;99383.56;;;22.90;60.01
75617;BME280;64200;55.426;37.758;2023-08-20T13:07:37;99389.41;;;22.84;60.05
75617;BME280;64200;55.426;37.758;2023-08-20T13:12:38;99383.59;;;23.26;60.06
75617;BME280;64200;55.426;37.758;2023-08-20T13:17:41;99400.06;;;23.64;59.30
75617;BME280;64200;55.426;37.758;2023-08-20T13:22:42;99399.81;;;23.99;59.08
75617;BME280;64200;55.426;37.758;2023-08-20T13:27:43;99414.06;;;24.14;58.13
75617;BME280;64200;55.426;37.758;2023-08-20T13:32:44;99387.09;;;24.85;58.04
75617;BME280;64200;55.426;37.758;2023-08-20T13:37:44;99406.66;;;25.60;56.63
75617;BME280;64200;55.426;37.758;2023-08-20T13:42:45;99407.03;;;25.64;54.86
75617;BME280;64200;55.426;37.758;2023-08-20T13:47:46;99392.47;;;25.29;55.67
75617;BME280;64200;55.426;37.758;2023-08-20T13:52:46;99379.81;;;25.07;54.36
75617;BME280;64200;55.426;37.758;2023-08-20T13:57:47;99375.13;;;24.79;54.61
75617;BME280;64200;55.426;37.758;2023-08-20T14:02:47;99372.47;;;24.73;55.09
75617;BME280;64200;55.426;37.758;2023-08-20T14:07:48;99361.81;;;24.66;55.51
75617;BME280;64200;55.426;37.758;2023-08-20T14:12:48;99351.94;;;24.44;55.48
75617;BME280;64200;55.426;37.758;2023-08-20T14:17:49;99341.50;;;24.38;56.35
75617;BME280;64200;55.426;37.758;2023-08-20T14:22:50;99340.75;;;24.46;57.30
75617;BME280;64200;55.426;37.758;2023-08-20T14:27:50;99320.78;;;24.61;57.39
75617;BME280;64200;55.426;37.758;2023-08-20T14:32:51;99327.75;;;24.83;57.03
75617;BME280;64200;55.426;37.758;2023-08-20T14:37:54;99326.03;;;24.88;56.59
75617;BME280;64200;55.426;37.758;2023-08-20T14:42:55;99321.13;;;24.73;57.86
75617;BME280;64200;55.426;37.758;2023-08-20T14:47:55;99327.19;;;24.85;57.13
75617;BME280;64200;55.426;37.758;2023-08-20T14:52:56;99325.69;;;24.68;56.95
75617;BME280;64200;55.426;37.758;2023-08-20T14:57:57;99332.00;;;24.59;57.81
75617;BME280;64200;55.426;37.758;2023-08-20T15:02:57;99329.47;;;24.79;57.90
75617;BME280;64200;55.426;37.758;2023-08-20T15:07:58;99335.34;;;24.88;57.74
75617;BME280;64200;55.426;37.758;2023-08-20T15:12:58;99338.00;;;24.86;57.55
75617;BME280;64200;55.426;37.758;2023-08-20T15:17:59;99335.59;;;24.60;57.58
75617;BME280;64200;55.426;37.758;2023-08-20T15:22:59;99325.53;;;24.59;57.58
75617;BME280;64200;55.426;37.758;2023-08-20T15:28:00;99317.34;;;24.47;57.80
75617;BME280;64200;55.426;37.758;2023-08-20T15:33:00;99325.75;;;24.22;57.86
75617;BME280;64200;55.426;37.758;2023-08-20T15:38:01;99319.84;;;24.05;58.74
75617;BME280;64200;55.426;37.758;2023-08-20T15:43:02;99316.78;;;23.95;58.59
75617;BME280;64200;55.426;37.758;2023-08-20T15:48:03;99325.53;;;23.89;59.00
75617;BME280;64200;55.426;37.758;2023-08-20T15:53:04;99334.03;;;23.81;60.27
75617;BME280;64200;55.426;37.758;2023-08-20T15:58:04;99333.06;;;23.63;60.49
75617;BME280;64200;55.426;37.758;2023-08-20T16:03:05;99316.72;;;23.56;60.65
75617;BME280;64200;55.426;37.758;2023-08-20T16:08:05;99325.03;;;23.46;60.76
75617;BME280;64200;55.426;37.758;2023-08-20T16:13:06;99323.88;;;23.34;61.44
75617;BME280;64200;55.426;37.758;2023-08-20T16:18:06;99311.91;;;23.28;61.17
75617;BME280;64200;55.426;37.758;2023-08-20T16:23:08;99322.53;;;23.27;61.66
75617;BME280;64200;55.426;37.758;2023-08-20T16:28:08;99329.84;;;23.15;61.89
75617;BME280;64200;55.426;37.758;2023-08-20T16:33:12;99321.66;;;23.04;62.25
75617;BME280;64200;55.426;37.758;2023-08-20T16:38:13;99313.28;;;22.98;63.19
75617;BME280;64200;55.426;37.758;2023-08-20T16:43:13;99320.28;;;22.97;63.66
75617;BME280;64200;55.426;37.758;2023-08-20T16:48:14;99328.97;;;22.91;63.63
75617;BME280;64200;55.426;37.758;2023-08-20T16:53:15;99338.88;;;22.98;63.71
75617;BME280;64200;55.426;37.758;2023-08-20T16:58:16;99336.59;;;22.96;64.10
75617;BME280;64200;55.426;37.758;2023-08-20T17:03:17;99332.19;;;22.88;64.35
75617;BME280;64200;55.426;37.758;2023-08-20T17:08:17;99325.94;;;22.89;64.15
75617;BME280;64200;55.426;37.758;2023-08-20T17:13:18;99321.72;;;22.83;64.34
75617;BME280;64200;55.426;37.758;2023-08-20T17:18:18;99334.06;;;22.85;64.55
75617;BME280;64200;55.426;37.758;2023-08-20T17:23:19;99351.84;;;22.78;64.89
75617;BME280;64200;55.426;37.758;2023-08-20T17:28:20;99350.94;;;22.83;65.17
75617;BME280;64200;55.426;37.758;2023-08-20T17:33:20;99362.25;;;22.75;65.98
75617;BME280;64200;55.426;37.758;2023-08-20T17:38:21;99365.50;;;22.79;65.99
75617;BME280;64200;55.426;37.758;2023-08-20T17:43:23;99366.63;;;22.76;66.05
75617;BME280;64200;55.426;37.758;2023-08-20T17:48:24;99356.50;;;22.68;66.72
75617;BME280;64200;55.426;37.758;2023-08-20T17:53:25;99356.16;;;22.71;66.91
75617;BME280;64200;55.426;37.758;2023-08-20T17:58:26;99370.44;;;22.79;67.68
75617;BME280;64200;55.426;37.758;2023-08-20T18:03:27;99355.59;;;22.73;67.61
75617;BME280;64200;55.426;37.758;2023-08-20T18:08:27;99353.53;;;22.73;68.17
75617;BME280;64200;55.426;37.758;2023-08-20T18:13:28;99356.72;;;22.70;68.64
75617;BME280;64200;55.426;37.758;2023-08-20T18:18:28;99358.34;;;22.57;68.75
75617;BME280;64200;55.426;37.758;2023-08-20T18:23:30;99348.03;;;22.47;69.71
75617;BME280;64200;55.426;37.758;2023-08-20T18:28:30;99348.97;;;22.41;69.36
75617;BME280;64200;55.426;37.758;2023-08-20T18:33:31;99351.06;;;22.27;69.02
75617;BME280;64200;55.426;37.758;2023-08-20T18:43:33;99359.75;;;22.01;68.71
75617;BME280;64200;55.426;37.758;2023-08-20T18:48:34;99353.31;;;22.00;69.19
75617;BME280;64200;55.426;37.758;2023-08-20T18:53:35;99346.53;;;21.82;68.92
75617;BME280;64200;55.426;37.758;2023-08-20T18:58:36;99355.09;;;21.69;68.65
75617;BME280;64200;55.426;37.758;2023-08-20T19:03:36;99355.13;;;21.55;68.08
75617;BME280;64200;55.426;37.758;2023-08-20T19:08:37;99353.50;;;21.47;67.95
75617;BME280;64200;55.426;37.758;2023-08-20T19:13:38;99361.81;;;21.31;68.01
75617;BME280;64200;55.426;37.758;2023-08-20T19:18:38;99356.50;;;21.28;67.96
75617;BME280;64200;55.426;37.758;2023-08-20T19:23:39;99351.50;;;21.20;68.03
75617;BME280;64200;55.426;37.758;2023-08-20T19:28:39;99355.84;;;21.21;67.45
75617;BME280;64200;55.426;37.758;2023-08-20T19:33:40;99350.72;;;21.06;67.52
75617;BME280;64200;55.426;37.758;2023-08-20T19:38:41;99343.88;;;20.88;67.46
75617;BME280;64200;55.426;37.758;2023-08-20T19:43:42;99340.09;;;20.73;67.82
75617;BME280;64200;55.426;37.758;2023-08-20T19:48:42;99339.06;;;20.57;68.14
75617;BME280;64200;55.426;37.758;2023-08-20T19:53:43;99358.25;;;20.50;68.10
75617;BME280;64200;55.426;37.758;2023-08-20T19:58:44;99363.44;;;20.33;67.19
75617;BME280;64200;55.426;37.758;2023-08-20T20:03:45;99361.75;;;20.11;66.85
75617;BME280;64200;55.426;37.758;2023-08-20T20:08:45;99356.19;;;20.05;66.86
75617;BME280;64200;55.426;37.758;2023-08-20T20:13:46;99371.00;;;20.11;66.61
75617;BME280;64200;55.426;37.758;2023-08-20T20:18:46;99359.81;;;20.19;66.41
75617;BME280;64200;55.426;37.758;2023-08-20T20:23:47;99366.91;;;20.26;65.65
75617;BME280;64200;55.426;37.758;2023-08-20T20:28:48;99377.50;;;20.25;65.41
75617;BME280;64200;55.426;37.758;2023-08-20T20:33:49;99386.84;;;20.20;65.52
75617;BME280;64200;55.426;37.758;2023-08-20T20:38:49;99380.81;;;20.10;65.33
75617;BME280;64200;55.426;37.758;2023-08-20T20:43:50;99386.78;;;20.07;65.44
75617;BME280;64200;55.426;37.758;2023-08-20T20:48:50;99383.84;;;19.99;65.69
75617;BME280;64200;55.426;37.758;2023-08-20T20:53:52;99390.09;;;19.73;65.67
75617;BME280;64200;55.426;37.758;2023-08-20T20:58:52;99391.34;;;19.58;66.19
75617;BME280;64200;55.426;37.758;2023-08-20T21:03:53;99394.94;;;19.59;65.89
75617;BME280;64200;55.426;37.758;2023-08-20T21:08:54;99378.88;;;19.48;66.10
75617;BME280;64200;55.426;37.758;2023-08-20T21:13:56;99382.00;;;19.44;66.06
75617;BME280;64200;55.426;37.758;2023-08-20T21:18:56;99377.44;;;19.41;65.93
75617;BME280;64200;55.426;37.758;2023-08-20T21:23:57;99384.97;;;19.33;65.93
75617;BME280;64200;55.426;37.758;2023-08-20T21:28:58;99385.44;;;19.37;65.89
75617;BME280;64200;55.426;37.758;2023-08-20T21:33:59;99394.69;;;19.38;66.38
75617;BME280;64200;55.426;37.758;2023-08-20T21:38:59;99382.69;;;19.31;65.95
75617;BME280;64200;55.426;37.758;2023-08-20T21:44:00;99381.00;;;19.23;65.91
75617;BME280;64200;55.426;37.758;2023-08-20T21:49:00;99381.38;;;19.13;66.11
75617;BME280;64200;55.426;37.758;2023-08-20T21:54:01;99389.78;;;19.19;65.93
75617;BME280;64200;55.426;37.758;2023-08-20T21:59:02;99390.28;;;18.99;66.08
75617;BME280;64200;55.426;37.758;2023-08-20T22:04:03;99396.44;;;19.03;66.26
75617;BME280;64200;55.426;37.758;2023-08-20T22:09:04;99393.06;;;19.04;65.89
75617;BME280;64200;55.426;37.758;2023-08-20T22:14:04;99394.28;;;19.09;66.02
75617;BME280;64200;55.426;37.758;2023-08-20T22:19:05;99385.34;;;19.05;66.07
75617;BME280;64200;55.426;37.758;2023-08-20T22:24:05;99389.16;;;18.83;65.73
75617;BME280;64200;55.426;37.758;2023-08-20T22:29:06;99380.88;;;18.66;65.84
75617;BME280;64200;55.426;37.758;2023-08-20T22:34:07;99371.69;;;18.59;65.87
75617;BME280;64200;55.426;37.758;2023-08-20T22:39:07;99377.63;;;18.56;65.84
75617;BME280;64200;55.426;37.758;2023-08-20T22:44:08;99367.06;;;18.56;65.72
75617;BME280;64200;55.426;37.758;2023-08-20T22:49:09;99371.22;;;18.55;65.31
75617;BME280;64200;55.426;37.758;2023-08-20T22:54:09;99370.69;;;18.57;65.08
75617;BME280;64200;55.426;37.758;2023-08-20T22:59:10;99358.19;;;18.47;65.16
75617;BME280;64200;55.426;37.758;2023-08-20T23:04:15;99359.84;;;18.36;65.02
75617;BME280;64200;55.426;37.758;2023-08-20T23:09:15;99347.31;;;18.32;64.57
75617;BME280;64200;55.426;37.758;2023-08-20T23:14:16;99349.13;;;18.29;64.89
75617;BME280;64200;55.426;37.758;2023-08-20T23:19:16;99344.72;;;18.34;63.93
75617;BME280;64200;55.426;37.758;2023-08-20T23:24:17;99350.19;;;18.26;63.72
75617;BME280;64200;55.426;37.758;2023-08-20T23:29:17;99348.47;;;18.17;64.07
75617;BME280;64200;55.426;37.758;2023-08-20T23:34:18;99341.03;;;18.14;64.12
75617;BME280;64200;55.426;37.758;2023-08-20T23:39:18;99343.13;;;18.14;63.90
75617;BME280;64200;55.426;37.758;2023-08-20T23:44:19;99349.19;;;17.93;63.69
75617;BME280;64200;55.426;37.758;2023-08-20T23:49:19;99351.00;;;17.85;63.65
75617;BME280;64200;55.426;37.758;2023-08-20T23:54:20;99347.16;;;17.82;63.31
75617;BME280;64200;55.426;37.758;2023-08-20T23:59:21;99352.28;;;17.84;63.49
